sensor_id;sensor_type;location;lat;lon;timestamp;P1;durP1;ratioP1;P2;durP2;ratioP2
10246;SDS011;5168;47.854;7.944;2022-12-24T00:01:04;4.43;;;2.30;;
10246;SDS011;5168;47.854;7.944;2022-12-24T00:03:30;4.23;;;2.10;;
10246;SDS011;5168;47.854;7.944;2022-12-24T00:05:57;6.00;;;2.40;;
10246;SDS011;5168;47.854;7.944;2022-12-24T00:08:22;4.60;;;2.20;;
10246;SDS011;5168;47.854;7.944;2022-12-24T00:10:49;5.40;;;2.20;;
10246;SDS011;5168;47.854;7.944;2022-12-24T00:13:16;3.33;;;2.20;;
10246;SDS011;5168;47.854;7.944;2022-12-24T00:15:41;3.33;;;2.03;;
10246;SDS011;5168;47.854;7.944;2022-12-24T00:18:07;2.57;;;2.17;;
10246;SDS011;5168;47.854;7.944;2022-12-24T00:20:32;3.53;;;2.00;;
10246;SDS011;5168;47.854;7.944;2022-12-24T00:22:59;6.13;;;2.13;;
10246;SDS011;5168;47.854;7.944;2022-12-24T00:25:25;4.57;;;2.20;;
10246;SDS011;5168;47.854;7.944;2022-12-24T00:27:50;3.03;;;1.80;;
10246;SDS011;5168;47.854;7.944;2022-12-24T00:30:16;3.80;;;2.20;;
10246;SDS011;5168;47.854;7.944;2022-12-24T00:32:42;5.93;;;1.93;;
10246;SDS011;5168;47.854;7.944;2022-12-24T00:35:07;4.30;;;2.07;;
10246;SDS011;5168;47.854;7.944;2022-12-24T00:37:33;9.10;;;2.27;;
10246;SDS011;5168;47.854;7.944;2022-12-24T00:39:59;2.63;;;2.10;;
10246;SDS011;5168;47.854;7.944;2022-12-24T00:42:24;5.40;;;2.23;;
10246;SDS011;5168;47.854;7.944;2022-12-24T00:44:50;3.73;;;2.07;;
10246;SDS011;5168;47.854;7.944;2022-12-24T00:47:16;2.53;;;2.13;;
10246;SDS011;5168;47.854;7.944;2022-12-24T00:49:42;3.30;;;1.93;;
10246;SDS011;5168;47.854;7.944;2022-12-24T00:52:07;4.33;;;2.30;;
10246;SDS011;5168;47.854;7.944;2022-12-24T00:54:33;4.60;;;2.27;;
10246;SDS011;5168;47.854;7.944;2022-12-24T00:56:58;3.47;;;2.47;;
10246;SDS011;5168;47.854;7.944;2022-12-24T00:59:24;5.73;;;2.07;;
10246;SDS011;5168;47.854;7.944;2022-12-24T01:01:49;5.40;;;2.00;;
10246;SDS011;5168;47.854;7.944;2022-12-24T01:04:15;5.83;;;2.30;;
10246;SDS011;5168;47.854;7.944;2022-12-24T01:06:59;5.73;;;2.63;;
10246;SDS011;5168;47.854;7.944;2022-12-24T01:09:24;5.40;;;2.13;;
10246;SDS011;5168;47.854;7.944;2022-12-24T01:11:50;4.67;;;2.10;;
10246;SDS011;5168;47.854;7.944;2022-12-24T01:14:15;4.20;;;2.00;;
10246;SDS011;5168;47.854;7.944;2022-12-24T01:16:41;4.13;;;2.07;;
10246;SDS011;5168;47.854;7.944;2022-12-24T01:19:07;2.50;;;2.23;;
10246;SDS011;5168;47.854;7.944;2022-12-24T01:21:33;4.17;;;2.10;;
10246;SDS011;5168;47.854;7.944;2022-12-24T01:23:58;3.00;;;2.30;;
10246;SDS011;5168;47.854;7.944;2022-12-24T01:26:24;4.03;;;2.10;;
10246;SDS011;5168;47.854;7.944;2022-12-24T01:28:50;2.97;;;2.10;;
10246;SDS011;5168;47.854;7.944;2022-12-24T01:31:17;6.10;;;2.40;;
10246;SDS011;5168;47.854;7.944;2022-12-24T01:33:43;2.47;;;2.10;;
10246;SDS011;5168;47.854;7.944;2022-12-24T01:36:10;4.30;;;2.10;;
10246;SDS011;5168;47.854;7.944;2022-12-24T01:38:36;4.43;;;2.17;;
10246;SDS011;5168;47.854;7.944;2022-12-24T01:41:02;5.97;;;2.83;;
10246;SDS011;5168;47.854;7.944;2022-12-24T01:43:46;6.27;;;2.53;;
10246;SDS011;5168;47.854;7.944;2022-12-24T01:48:44;8.40;;;2.70;;
10246;SDS011;5168;47.854;7.944;2022-12-24T01:51:33;5.67;;;2.10;;
10246;SDS011;5168;47.854;7.944;2022-12-24T01:54:09;5.40;;;2.20;;
10246;SDS011;5168;47.854;7.944;2022-12-24T01:56:49;2.80;;;2.00;;
10246;SDS011;5168;47.854;7.944;2022-12-24T01:59:19;2.37;;;2.17;;
10246;SDS011;5168;47.854;7.944;2022-12-24T02:01:46;3.23;;;2.23;;
10246;SDS011;5168;47.854;7.944;2022-12-24T02:04:21;5.17;;;2.10;;
10246;SDS011;5168;47.854;7.944;2022-12-24T02:07:02;3.60;;;2.30;;
10246;SDS011;5168;47.854;7.944;2022-12-24T02:09:27;3.87;;;2.20;;
10246;SDS011;5168;47.854;7.944;2022-12-24T02:11:53;5.17;;;2.40;;
10246;SDS011;5168;47.854;7.944;2022-12-24T02:14:20;4.67;;;2.30;;
10246;SDS011;5168;47.854;7.944;2022-12-24T02:24:55;6.20;;;2.40;;
10246;SDS011;5168;47.854;7.944;2022-12-24T02:27:43;6.67;;;2.37;;
10246;SDS011;5168;47.854;7.944;2022-12-24T02:30:21;4.70;;;2.40;;
10246;SDS011;5168;47.854;7.944;2022-12-24T02:33:10;4.23;;;2.60;;
10246;SDS011;5168;47.854;7.944;2022-12-24T02:36:05;6.43;;;2.50;;
10246;SDS011;5168;47.854;7.944;2022-12-24T02:38:48;6.13;;;2.30;;
10246;SDS011;5168;47.854;7.944;2022-12-24T02:41:23;8.70;;;2.40;;
10246;SDS011;5168;47.854;7.944;2022-12-24T02:44:13;6.67;;;2.40;;
10246;SDS011;5168;47.854;7.944;2022-12-24T02:46:40;4.73;;;2.43;;
10246;SDS011;5168;47.854;7.944;2022-12-24T02:49:05;6.67;;;2.50;;
10246;SDS011;5168;47.854;7.944;2022-12-24T02:51:31;10.03;;;2.93;;
10246;SDS011;5168;47.854;7.944;2022-12-24T02:53:57;4.93;;;2.63;;
10246;SDS011;5168;47.854;7.944;2022-12-24T02:59:34;7.50;;;2.97;;
10246;SDS011;5168;47.854;7.944;2022-12-24T03:05:19;7.83;;;2.70;;
10246;SDS011;5168;47.854;7.944;2022-12-24T03:08:12;4.87;;;2.17;;
10246;SDS011;5168;47.854;7.944;2022-12-24T03:10:56;6.93;;;2.97;;
10246;SDS011;5168;47.854;7.944;2022-12-24T03:13:26;9.27;;;2.50;;
10246;SDS011;5168;47.854;7.944;2022-12-24T03:15:53;6.83;;;2.50;;
10246;SDS011;5168;47.854;7.944;2022-12-24T03:18:21;5.57;;;2.50;;
10246;SDS011;5168;47.854;7.944;2022-12-24T03:20:52;5.70;;;2.50;;
10246;SDS011;5168;47.854;7.944;2022-12-24T03:23:22;8.77;;;2.70;;
10246;SDS011;5168;47.854;7.944;2022-12-24T03:25:48;6.83;;;2.57;;
10246;SDS011;5168;47.854;7.944;2022-12-24T03:28:14;4.90;;;2.23;;
10246;SDS011;5168;47.854;7.944;2022-12-24T03:30:43;5.03;;;2.50;;
10246;SDS011;5168;47.854;7.944;2022-12-24T03:33:10;9.03;;;2.80;;
10246;SDS011;5168;47.854;7.944;2022-12-24T03:35:36;4.73;;;2.40;;
10246;SDS011;5168;47.854;7.944;2022-12-24T03:38:02;4.87;;;2.30;;
10246;SDS011;5168;47.854;7.944;2022-12-24T03:40:28;6.17;;;2.37;;
10246;SDS011;5168;47.854;7.944;2022-12-24T03:42:54;5.17;;;2.03;;
10246;SDS011;5168;47.854;7.944;2022-12-24T03:45:19;4.60;;;2.10;;
10246;SDS011;5168;47.854;7.944;2022-12-24T03:47:45;6.43;;;1.90;;
10246;SDS011;5168;47.854;7.944;2022-12-24T03:50:11;3.20;;;1.80;;
10246;SDS011;5168;47.854;7.944;2022-12-24T03:52:37;3.83;;;1.80;;
10246;SDS011;5168;47.854;7.944;2022-12-24T03:55:02;2.27;;;1.87;;
10246;SDS011;5168;47.854;7.944;2022-12-24T03:57:28;4.43;;;2.20;;
10246;SDS011;5168;47.854;7.944;2022-12-24T03:59:54;6.07;;;2.37;;
10246;SDS011;5168;47.854;7.944;2022-12-24T04:02:19;5.33;;;2.27;;
10246;SDS011;5168;47.854;7.944;2022-12-24T04:04:45;9.77;;;2.50;;
10246;SDS011;5168;47.854;7.944;2022-12-24T04:07:10;5.20;;;2.53;;
10246;SDS011;5168;47.854;7.944;2022-12-24T04:09:36;6.43;;;2.17;;
10246;SDS011;5168;47.854;7.944;2022-12-24T04:12:03;10.13;;;2.37;;
10246;SDS011;5168;47.854;7.944;2022-12-24T04:14:29;6.57;;;2.47;;
10246;SDS011;5168;47.854;7.944;2022-12-24T04:16:55;3.47;;;2.23;;
10246;SDS011;5168;47.854;7.944;2022-12-24T04:19:20;9.40;;;2.80;;
10246;SDS011;5168;47.854;7.944;2022-12-24T04:21:47;7.27;;;2.87;;
10246;SDS011;5168;47.854;7.944;2022-12-24T04:24:12;6.70;;;2.53;;
10246;SDS011;5168;47.854;7.944;2022-12-24T04:26:38;5.07;;;2.30;;
10246;SDS011;5168;47.854;7.944;2022-12-24T04:29:04;5.67;;;2.47;;
10246;SDS011;5168;47.854;7.944;2022-12-24T04:31:29;5.77;;;2.87;;
10246;SDS011;5168;47.854;7.944;2022-12-24T04:33:55;8.97;;;2.67;;
10246;SDS011;5168;47.854;7.944;2022-12-24T04:36:20;11.57;;;2.70;;
10246;SDS011;5168;47.854;7.944;2022-12-24T04:38:46;9.40;;;2.90;;
10246;SDS011;5168;47.854;7.944;2022-12-24T04:41:14;12.37;;;3.20;;
10246;SDS011;5168;47.854;7.944;2022-12-24T04:43:44;9.50;;;2.43;;
10246;SDS011;5168;47.854;7.944;2022-12-24T04:46:16;11.07;;;2.60;;
10246;SDS011;5168;47.854;7.944;2022-12-24T04:48:45;6.50;;;2.70;;
10246;SDS011;5168;47.854;7.944;2022-12-24T04:51:12;7.07;;;2.80;;
10246;SDS011;5168;47.854;7.944;2022-12-24T04:53:39;7.97;;;2.93;;
10246;SDS011;5168;47.854;7.944;2022-12-24T04:56:10;7.77;;;2.47;;
10246;SDS011;5168;47.854;7.944;2022-12-24T04:58:37;8.00;;;3.40;;
10246;SDS011;5168;47.854;7.944;2022-12-24T05:01:04;8.03;;;3.63;;
10246;SDS011;5168;47.854;7.944;2022-12-24T05:03:31;22.30;;;6.67;;
10246;SDS011;5168;47.854;7.944;2022-12-24T05:06:01;10.87;;;4.00;;
10246;SDS011;5168;47.854;7.944;2022-12-24T05:08:31;18.10;;;5.43;;
10246;SDS011;5168;47.854;7.944;2022-12-24T05:10:57;13.50;;;3.37;;
10246;SDS011;5168;47.854;7.944;2022-12-24T05:13:24;7.63;;;2.83;;
10246;SDS011;5168;47.854;7.944;2022-12-24T05:15:49;11.53;;;3.53;;
10246;SDS011;5168;47.854;7.944;2022-12-24T05:18:15;8.13;;;2.73;;
10246;SDS011;5168;47.854;7.944;2022-12-24T05:20:41;7.17;;;2.43;;
10246;SDS011;5168;47.854;7.944;2022-12-24T05:23:08;7.13;;;2.40;;
10246;SDS011;5168;47.854;7.944;2022-12-24T05:25:57;9.57;;;2.87;;
10246;SDS011;5168;47.854;7.944;2022-12-24T05:28:42;7.47;;;3.10;;
10246;SDS011;5168;47.854;7.944;2022-12-24T05:31:08;13.63;;;3.13;;
10246;SDS011;5168;47.854;7.944;2022-12-24T05:33:33;12.43;;;3.20;;
10246;SDS011;5168;47.854;7.944;2022-12-24T05:35:59;11.07;;;3.20;;
10246;SDS011;5168;47.854;7.944;2022-12-24T05:38:24;7.33;;;2.63;;
10246;SDS011;5168;47.854;7.944;2022-12-24T05:40:50;14.13;;;2.90;;
10246;SDS011;5168;47.854;7.944;2022-12-24T05:43:16;10.77;;;2.93;;
10246;SDS011;5168;47.854;7.944;2022-12-24T05:45:42;12.43;;;3.03;;
10246;SDS011;5168;47.854;7.944;2022-12-24T05:48:07;13.87;;;3.07;;
10246;SDS011;5168;47.854;7.944;2022-12-24T05:50:33;13.33;;;2.97;;
10246;SDS011;5168;47.854;7.944;2022-12-24T05:53:00;12.83;;;3.33;;
10246;SDS011;5168;47.854;7.944;2022-12-24T05:55:25;8.90;;;2.93;;
10246;SDS011;5168;47.854;7.944;2022-12-24T05:57:51;8.03;;;2.93;;
10246;SDS011;5168;47.854;7.944;2022-12-24T06:00:17;12.17;;;3.03;;
10246;SDS011;5168;47.854;7.944;2022-12-24T06:02:43;6.90;;;2.80;;
10246;SDS011;5168;47.854;7.944;2022-12-24T06:05:09;13.17;;;2.90;;
10246;SDS011;5168;47.854;7.944;2022-12-24T06:07:34;8.80;;;2.57;;
10246;SDS011;5168;47.854;7.944;2022-12-24T06:10:00;10.00;;;2.90;;
10246;SDS011;5168;47.854;7.944;2022-12-24T06:12:25;9.83;;;2.90;;
10246;SDS011;5168;47.854;7.944;2022-12-24T06:14:51;10.80;;;2.67;;
10246;SDS011;5168;47.854;7.944;2022-12-24T06:17:17;9.90;;;3.00;;
10246;SDS011;5168;47.854;7.944;2022-12-24T06:19:43;11.57;;;3.30;;
10246;SDS011;5168;47.854;7.944;2022-12-24T06:22:09;13.53;;;3.53;;
10246;SDS011;5168;47.854;7.944;2022-12-24T06:24:34;8.97;;;2.97;;
10246;SDS011;5168;47.854;7.944;2022-12-24T06:27:00;9.87;;;3.13;;
10246;SDS011;5168;47.854;7.944;2022-12-24T06:29:25;7.87;;;2.77;;
10246;SDS011;5168;47.854;7.944;2022-12-24T06:31:51;8.93;;;2.90;;
10246;SDS011;5168;47.854;7.944;2022-12-24T06:34:18;8.07;;;2.90;;
10246;SDS011;5168;47.854;7.944;2022-12-24T06:36:43;9.33;;;2.80;;
10246;SDS011;5168;47.854;7.944;2022-12-24T06:39:09;11.47;;;3.43;;
10246;SDS011;5168;47.854;7.944;2022-12-24T06:41:34;9.23;;;3.20;;
10246;SDS011;5168;47.854;7.944;2022-12-24T06:44:00;8.77;;;2.43;;
10246;SDS011;5168;47.854;7.944;2022-12-24T06:46:26;8.63;;;2.70;;
10246;SDS011;5168;47.854;7.944;2022-12-24T06:48:51;7.50;;;2.67;;
10246;SDS011;5168;47.854;7.944;2022-12-24T06:51:19;6.00;;;2.70;;
10246;SDS011;5168;47.854;7.944;2022-12-24T06:53:44;7.73;;;2.43;;
10246;SDS011;5168;47.854;7.944;2022-12-24T06:56:11;10.33;;;2.70;;
10246;SDS011;5168;47.854;7.944;2022-12-24T06:58:37;5.93;;;2.83;;
10246;SDS011;5168;47.854;7.944;2022-12-24T07:01:04;7.70;;;3.00;;
10246;SDS011;5168;47.854;7.944;2022-12-24T07:03:31;7.40;;;3.00;;
10246;SDS011;5168;47.854;7.944;2022-12-24T07:05:58;11.43;;;3.20;;
10246;SDS011;5168;47.854;7.944;2022-12-24T07:08:24;5.37;;;2.30;;
10246;SDS011;5168;47.854;7.944;2022-12-24T07:10:50;7.80;;;2.93;;
10246;SDS011;5168;47.854;7.944;2022-12-24T07:13:16;10.60;;;2.83;;
10246;SDS011;5168;47.854;7.944;2022-12-24T07:15:42;11.00;;;4.03;;
10246;SDS011;5168;47.854;7.944;2022-12-24T07:18:08;8.63;;;2.83;;
10246;SDS011;5168;47.854;7.944;2022-12-24T07:20:33;9.70;;;3.30;;
10246;SDS011;5168;47.854;7.944;2022-12-24T07:22:59;8.57;;;2.87;;
10246;SDS011;5168;47.854;7.944;2022-12-24T07:25:25;8.80;;;2.63;;
10246;SDS011;5168;47.854;7.944;2022-12-24T07:27:51;10.20;;;2.47;;
10246;SDS011;5168;47.854;7.944;2022-12-24T07:30:16;4.83;;;2.40;;
10246;SDS011;5168;47.854;7.944;2022-12-24T07:32:42;5.70;;;2.53;;
10246;SDS011;5168;47.854;7.944;2022-12-24T07:35:08;4.87;;;2.57;;
10246;SDS011;5168;47.854;7.944;2022-12-24T07:37:34;5.43;;;2.20;;
10246;SDS011;5168;47.854;7.944;2022-12-24T07:40:00;6.80;;;2.30;;
10246;SDS011;5168;47.854;7.944;2022-12-24T07:42:26;9.93;;;2.63;;
10246;SDS011;5168;47.854;7.944;2022-12-24T07:44:52;8.70;;;3.07;;
10246;SDS011;5168;47.854;7.944;2022-12-24T07:47:17;6.03;;;2.30;;
10246;SDS011;5168;47.854;7.944;2022-12-24T07:49:43;7.97;;;2.50;;
10246;SDS011;5168;47.854;7.944;2022-12-24T07:52:08;9.50;;;2.70;;
10246;SDS011;5168;47.854;7.944;2022-12-24T07:54:34;7.00;;;2.67;;
10246;SDS011;5168;47.854;7.944;2022-12-24T07:57:00;7.40;;;2.07;;
10246;SDS011;5168;47.854;7.944;2022-12-24T07:59:26;7.83;;;3.40;;
10246;SDS011;5168;47.854;7.944;2022-12-24T08:01:51;8.77;;;2.80;;
10246;SDS011;5168;47.854;7.944;2022-12-24T08:04:17;5.70;;;2.30;;
10246;SDS011;5168;47.854;7.944;2022-12-24T08:06:42;8.43;;;2.87;;
10246;SDS011;5168;47.854;7.944;2022-12-24T08:09:08;8.17;;;3.03;;
10246;SDS011;5168;47.854;7.944;2022-12-24T08:11:33;6.13;;;3.37;;
10246;SDS011;5168;47.854;7.944;2022-12-24T08:13:59;5.93;;;3.37;;
10246;SDS011;5168;47.854;7.944;2022-12-24T08:16:24;9.63;;;2.93;;
10246;SDS011;5168;47.854;7.944;2022-12-24T08:18:50;9.20;;;2.83;;
10246;SDS011;5168;47.854;7.944;2022-12-24T08:21:16;6.90;;;3.17;;
10246;SDS011;5168;47.854;7.944;2022-12-24T08:23:41;4.80;;;2.43;;
10246;SDS011;5168;47.854;7.944;2022-12-24T08:26:08;7.53;;;2.90;;
10246;SDS011;5168;47.854;7.944;2022-12-24T08:28:34;8.53;;;3.10;;
10246;SDS011;5168;47.854;7.944;2022-12-24T08:31:00;5.13;;;2.80;;
10246;SDS011;5168;47.854;7.944;2022-12-24T08:33:26;7.57;;;2.77;;
10246;SDS011;5168;47.854;7.944;2022-12-24T08:35:53;5.37;;;3.30;;
10246;SDS011;5168;47.854;7.944;2022-12-24T08:38:19;7.63;;;2.80;;
10246;SDS011;5168;47.854;7.944;2022-12-24T08:40:46;7.50;;;3.03;;
10246;SDS011;5168;47.854;7.944;2022-12-24T08:43:16;8.93;;;3.23;;
10246;SDS011;5168;47.854;7.944;2022-12-24T08:45:42;9.20;;;2.90;;
10246;SDS011;5168;47.854;7.944;2022-12-24T08:48:08;10.27;;;2.73;;
10246;SDS011;5168;47.854;7.944;2022-12-24T08:50:34;6.43;;;2.57;;
10246;SDS011;5168;47.854;7.944;2022-12-24T08:53:00;5.33;;;2.67;;
10246;SDS011;5168;47.854;7.944;2022-12-24T08:55:25;11.57;;;3.07;;
10246;SDS011;5168;47.854;7.944;2022-12-24T08:57:51;8.47;;;3.00;;
10246;SDS011;5168;47.854;7.944;2022-12-24T09:00:17;11.87;;;3.27;;
10246;SDS011;5168;47.854;7.944;2022-12-24T09:02:43;10.90;;;3.20;;
10246;SDS011;5168;47.854;7.944;2022-12-24T09:05:08;8.50;;;3.10;;
10246;SDS011;5168;47.854;7.944;2022-12-24T09:07:34;13.03;;;4.40;;
10246;SDS011;5168;47.854;7.944;2022-12-24T09:10:00;10.90;;;3.20;;
10246;SDS011;5168;47.854;7.944;2022-12-24T09:12:26;9.90;;;3.43;;
10246;SDS011;5168;47.854;7.944;2022-12-24T09:14:52;8.80;;;3.07;;
10246;SDS011;5168;47.854;7.944;2022-12-24T09:17:18;7.87;;;3.03;;
10246;SDS011;5168;47.854;7.944;2022-12-24T09:19:44;13.67;;;4.17;;
10246;SDS011;5168;47.854;7.944;2022-12-24T09:22:10;15.17;;;4.00;;
10246;SDS011;5168;47.854;7.944;2022-12-24T09:24:36;6.67;;;2.47;;
10246;SDS011;5168;47.854;7.944;2022-12-24T09:27:02;7.67;;;3.10;;
10246;SDS011;5168;47.854;7.944;2022-12-24T09:29:28;9.63;;;3.30;;
10246;SDS011;5168;47.854;7.944;2022-12-24T09:31:54;4.47;;;2.17;;
10246;SDS011;5168;47.854;7.944;2022-12-24T09:34:21;5.07;;;2.43;;
10246;SDS011;5168;47.854;7.944;2022-12-24T09:36:47;5.97;;;2.90;;
10246;SDS011;5168;47.854;7.944;2022-12-24T09:39:13;7.80;;;2.97;;
10246;SDS011;5168;47.854;7.944;2022-12-24T09:41:48;7.30;;;2.30;;
10246;SDS011;5168;47.854;7.944;2022-12-24T09:44:41;10.97;;;3.20;;
10246;SDS011;5168;47.854;7.944;2022-12-24T09:47:28;8.87;;;3.33;;
10246;SDS011;5168;47.854;7.944;2022-12-24T09:53:04;6.67;;;2.80;;
10246;SDS011;5168;47.854;7.944;2022-12-24T09:55:42;8.83;;;2.87;;
10246;SDS011;5168;47.854;7.944;2022-12-24T09:58:56;4.97;;;2.70;;
10246;SDS011;5168;47.854;7.944;2022-12-24T10:01:03;7.37;;;3.13;;
10246;SDS011;5168;47.854;7.944;2022-12-24T10:03:29;6.73;;;2.40;;
10246;SDS011;5168;47.854;7.944;2022-12-24T10:06:15;12.00;;;2.87;;
10246;SDS011;5168;47.854;7.944;2022-12-24T10:12:00;4.90;;;2.80;;
10246;SDS011;5168;47.854;7.944;2022-12-24T10:14:54;9.00;;;2.70;;
10246;SDS011;5168;47.854;7.944;2022-12-24T10:27:54;7.43;;;2.37;;
10246;SDS011;5168;47.854;7.944;2022-12-24T10:30:24;21.80;;;9.07;;
10246;SDS011;5168;47.854;7.944;2022-12-24T10:32:50;21.23;;;9.07;;
10246;SDS011;5168;47.854;7.944;2022-12-24T10:35:21;13.97;;;3.10;;
10246;SDS011;5168;47.854;7.944;2022-12-24T10:37:50;8.70;;;2.40;;
10246;SDS011;5168;47.854;7.944;2022-12-24T10:42:49;6.77;;;2.70;;
10246;SDS011;5168;47.854;7.944;2022-12-24T10:45:16;9.27;;;2.27;;
10246;SDS011;5168;47.854;7.944;2022-12-24T10:47:47;6.30;;;3.20;;
10246;SDS011;5168;47.854;7.944;2022-12-24T10:50:18;10.37;;;3.13;;
10246;SDS011;5168;47.854;7.944;2022-12-24T10:52:54;10.77;;;2.47;;
10246;SDS011;5168;47.854;7.944;2022-12-24T10:55:28;4.53;;;2.00;;
10246;SDS011;5168;47.854;7.944;2022-12-24T10:57:59;3.80;;;2.30;;
10246;SDS011;5168;47.854;7.944;2022-12-24T11:00:26;4.43;;;2.50;;
10246;SDS011;5168;47.854;7.944;2022-12-24T11:06:02;4.73;;;2.50;;
10246;SDS011;5168;47.854;7.944;2022-12-24T11:08:30;7.13;;;2.80;;
10246;SDS011;5168;47.854;7.944;2022-12-24T11:11:03;13.73;;;3.17;;
10246;SDS011;5168;47.854;7.944;2022-12-24T11:13:32;5.50;;;2.47;;
10246;SDS011;5168;47.854;7.944;2022-12-24T11:16:03;4.73;;;2.57;;
10246;SDS011;5168;47.854;7.944;2022-12-24T11:18:33;6.33;;;2.40;;
10246;SDS011;5168;47.854;7.944;2022-12-24T11:21:00;5.57;;;2.37;;
10246;SDS011;5168;47.854;7.944;2022-12-24T11:23:28;3.27;;;2.27;;
10246;SDS011;5168;47.854;7.944;2022-12-24T11:25:53;4.63;;;2.00;;
10246;SDS011;5168;47.854;7.944;2022-12-24T11:28:25;6.80;;;2.20;;
10246;SDS011;5168;47.854;7.944;2022-12-24T11:33:23;6.10;;;2.53;;
10246;SDS011;5168;47.854;7.944;2022-12-24T11:35:53;2.37;;;1.83;;
10246;SDS011;5168;47.854;7.944;2022-12-24T11:38:25;3.37;;;1.93;;
10246;SDS011;5168;47.854;7.944;2022-12-24T11:41:09;4.37;;;2.20;;
10246;SDS011;5168;47.854;7.944;2022-12-24T11:43:36;6.03;;;2.33;;
10246;SDS011;5168;47.854;7.944;2022-12-24T11:46:12;3.33;;;2.50;;
10246;SDS011;5168;47.854;7.944;2022-12-24T11:48:39;4.10;;;2.10;;
10246;SDS011;5168;47.854;7.944;2022-12-24T11:51:06;4.23;;;2.07;;
10246;SDS011;5168;47.854;7.944;2022-12-24T11:53:45;2.13;;;1.77;;
10246;SDS011;5168;47.854;7.944;2022-12-24T11:56:46;4.57;;;2.27;;
10246;SDS011;5168;47.854;7.944;2022-12-24T11:59:30;3.50;;;1.87;;
10246;SDS011;5168;47.854;7.944;2022-12-24T12:04:58;2.70;;;2.10;;
10246;SDS011;5168;47.854;7.944;2022-12-24T12:07:29;4.47;;;2.00;;
10246;SDS011;5168;47.854;7.944;2022-12-24T12:10:18;2.60;;;1.70;;
10246;SDS011;5168;47.854;7.944;2022-12-24T12:12:49;4.30;;;2.10;;
10246;SDS011;5168;47.854;7.944;2022-12-24T12:15:22;2.37;;;1.80;;
10246;SDS011;5168;47.854;7.944;2022-12-24T12:17:54;2.97;;;1.80;;
10246;SDS011;5168;47.854;7.944;2022-12-24T12:25:37;3.27;;;2.40;;
10246;SDS011;5168;47.854;7.944;2022-12-24T12:28:20;2.10;;;1.90;;
10246;SDS011;5168;47.854;7.944;2022-12-24T12:30:53;4.63;;;2.10;;
10246;SDS011;5168;47.854;7.944;2022-12-24T12:36:04;3.77;;;2.80;;
10246;SDS011;5168;47.854;7.944;2022-12-24T12:38:33;3.37;;;2.00;;
10246;SDS011;5168;47.854;7.944;2022-12-24T12:46:43;2.07;;;1.83;;
10246;SDS011;5168;47.854;7.944;2022-12-24T12:49:36;1.87;;;1.73;;
10246;SDS011;5168;47.854;7.944;2022-12-24T12:57:46;1.90;;;1.80;;
10246;SDS011;5168;47.854;7.944;2022-12-24T13:00:17;1.83;;;1.70;;
10246;SDS011;5168;47.854;7.944;2022-12-24T13:21:50;1.93;;;1.83;;
10246;SDS011;5168;47.854;7.944;2022-12-24T13:24:22;2.03;;;1.90;;
10246;SDS011;5168;47.854;7.944;2022-12-24T13:26:58;2.40;;;1.93;;
10246;SDS011;5168;47.854;7.944;2022-12-24T13:29:41;5.70;;;2.13;;
10246;SDS011;5168;47.854;7.944;2022-12-24T13:35:30;4.27;;;2.00;;
10246;SDS011;5168;47.854;7.944;2022-12-24T13:37:45;5.40;;;2.00;;
10246;SDS011;5168;47.854;7.944;2022-12-24T13:40:15;2.43;;;2.23;;
10246;SDS011;5168;47.854;7.944;2022-12-24T13:45:40;2.27;;;2.07;;
10246;SDS011;5168;47.854;7.944;2022-12-24T13:56:08;4.27;;;2.20;;
10246;SDS011;5168;47.854;7.944;2022-12-24T13:58:38;1.97;;;1.70;;
10246;SDS011;5168;47.854;7.944;2022-12-24T14:01:08;6.00;;;2.17;;
10246;SDS011;5168;47.854;7.944;2022-12-24T14:03:48;2.30;;;2.10;;
10246;SDS011;5168;47.854;7.944;2022-12-24T14:08:45;2.30;;;2.03;;
10246;SDS011;5168;47.854;7.944;2022-12-24T14:11:15;5.17;;;2.30;;
10246;SDS011;5168;47.854;7.944;2022-12-24T14:16:17;2.90;;;1.80;;
10246;SDS011;5168;47.854;7.944;2022-12-24T14:21:41;4.67;;;1.87;;
10246;SDS011;5168;47.854;7.944;2022-12-24T14:24:20;2.90;;;2.20;;
10246;SDS011;5168;47.854;7.944;2022-12-24T14:26:56;5.13;;;2.00;;
10246;SDS011;5168;47.854;7.944;2022-12-24T14:31:58;5.40;;;2.20;;
10246;SDS011;5168;47.854;7.944;2022-12-24T14:34:28;2.53;;;2.27;;
10246;SDS011;5168;47.854;7.944;2022-12-24T14:36:55;3.33;;;2.40;;
10246;SDS011;5168;47.854;7.944;2022-12-24T14:42:29;3.70;;;2.37;;
10246;SDS011;5168;47.854;7.944;2022-12-24T14:44:40;3.83;;;2.00;;
10246;SDS011;5168;47.854;7.944;2022-12-24T14:50:27;3.53;;;2.10;;
10246;SDS011;5168;47.854;7.944;2022-12-24T14:56:12;2.63;;;1.73;;
10246;SDS011;5168;47.854;7.944;2022-12-24T14:58:43;4.50;;;2.17;;
10246;SDS011;5168;47.854;7.944;2022-12-24T15:06:34;5.00;;;2.70;;
10246;SDS011;5168;47.854;7.944;2022-12-24T15:09:01;7.07;;;2.40;;
10246;SDS011;5168;47.854;7.944;2022-12-24T15:11:26;8.83;;;2.10;;
10246;SDS011;5168;47.854;7.944;2022-12-24T15:13:53;5.77;;;1.90;;
10246;SDS011;5168;47.854;7.944;2022-12-24T15:16:23;3.37;;;1.77;;
10246;SDS011;5168;47.854;7.944;2022-12-24T15:18:56;3.90;;;2.47;;
10246;SDS011;5168;47.854;7.944;2022-12-24T15:21:26;3.80;;;2.37;;
10246;SDS011;5168;47.854;7.944;2022-12-24T15:26:56;3.97;;;1.90;;
10246;SDS011;5168;47.854;7.944;2022-12-24T15:29:24;5.17;;;2.30;;
10246;SDS011;5168;47.854;7.944;2022-12-24T15:31:54;4.20;;;2.10;;
10246;SDS011;5168;47.854;7.944;2022-12-24T15:34:34;7.40;;;2.30;;
10246;SDS011;5168;47.854;7.944;2022-12-24T15:37:03;3.73;;;2.30;;
10246;SDS011;5168;47.854;7.944;2022-12-24T15:39:35;3.97;;;2.33;;
10246;SDS011;5168;47.854;7.944;2022-12-24T15:42:03;4.93;;;2.90;;
10246;SDS011;5168;47.854;7.944;2022-12-24T15:44:43;3.57;;;2.20;;
10246;SDS011;5168;47.854;7.944;2022-12-24T15:47:20;3.83;;;2.30;;
10246;SDS011;5168;47.854;7.944;2022-12-24T15:49:51;5.37;;;2.17;;
10246;SDS011;5168;47.854;7.944;2022-12-24T15:52:18;4.63;;;2.40;;
10246;SDS011;5168;47.854;7.944;2022-12-24T15:54:48;4.63;;;2.93;;
10246;SDS011;5168;47.854;7.944;2022-12-24T15:57:35;3.97;;;2.50;;
10246;SDS011;5168;47.854;7.944;2022-12-24T16:00:01;9.83;;;2.90;;
10246;SDS011;5168;47.854;7.944;2022-12-24T16:02:40;8.30;;;2.50;;
10246;SDS011;5168;47.854;7.944;2022-12-24T16:07:58;5.93;;;2.63;;
10246;SDS011;5168;47.854;7.944;2022-12-24T16:10:33;7.27;;;3.23;;
10246;SDS011;5168;47.854;7.944;2022-12-24T16:13:13;3.77;;;3.40;;
10246;SDS011;5168;47.854;7.944;2022-12-24T16:15:43;4.27;;;3.57;;
10246;SDS011;5168;47.854;7.944;2022-12-24T16:18:20;3.40;;;2.87;;
10246;SDS011;5168;47.854;7.944;2022-12-24T16:20:49;3.07;;;2.70;;
10246;SDS011;5168;47.854;7.944;2022-12-24T16:23:19;4.70;;;3.40;;
10246;SDS011;5168;47.854;7.944;2022-12-24T16:25:50;7.90;;;4.57;;
10246;SDS011;5168;47.854;7.944;2022-12-24T16:28:17;4.17;;;3.77;;
10246;SDS011;5168;47.854;7.944;2022-12-24T16:30:44;3.80;;;3.23;;
10246;SDS011;5168;47.854;7.944;2022-12-24T16:33:13;2.47;;;2.27;;
10246;SDS011;5168;47.854;7.944;2022-12-24T16:35:40;2.17;;;2.00;;
10246;SDS011;5168;47.854;7.944;2022-12-24T16:38:07;2.13;;;1.93;;
10246;SDS011;5168;47.854;7.944;2022-12-24T16:40:32;2.10;;;1.90;;
10246;SDS011;5168;47.854;7.944;2022-12-24T16:42:58;2.30;;;2.10;;
10246;SDS011;5168;47.854;7.944;2022-12-24T16:45:43;2.40;;;2.20;;
10246;SDS011;5168;47.854;7.944;2022-12-24T16:48:13;2.17;;;1.97;;
10246;SDS011;5168;47.854;7.944;2022-12-24T16:50:43;2.10;;;1.90;;
10246;SDS011;5168;47.854;7.944;2022-12-24T16:53:15;2.37;;;2.10;;
10246;SDS011;5168;47.854;7.944;2022-12-24T16:55:41;2.40;;;2.20;;
10246;SDS011;5168;47.854;7.944;2022-12-24T16:58:11;2.73;;;2.53;;
10246;SDS011;5168;47.854;7.944;2022-12-24T17:00:38;2.80;;;2.60;;
10246;SDS011;5168;47.854;7.944;2022-12-24T17:03:04;3.83;;;3.10;;
10246;SDS011;5168;47.854;7.944;2022-12-24T17:05:30;2.93;;;2.73;;
10246;SDS011;5168;47.854;7.944;2022-12-24T17:07:59;3.43;;;2.77;;
10246;SDS011;5168;47.854;7.944;2022-12-24T17:10:25;2.37;;;2.13;;
10246;SDS011;5168;47.854;7.944;2022-12-24T17:12:51;2.40;;;2.20;;
10246;SDS011;5168;47.854;7.944;2022-12-24T17:15:17;2.10;;;2.00;;
10246;SDS011;5168;47.854;7.944;2022-12-24T17:17:43;2.40;;;2.20;;
10246;SDS011;5168;47.854;7.944;2022-12-24T17:20:09;2.20;;;2.00;;